Time;durP1;ratioP1;P1;durP2;ratioP2;P2;SDS_P1;SDS_P2;PMS_P1;PMS_P2;Temp;Humidity;BMP_temperature;BMP_pressure;BME280_temperature;BME280_humidity;BME280_pressure;Samples;Min_cycle;Max_cycle;Signal;HPM_P1;HPM_P2
2023/08/02 00:01:18;;;;;;;11.63;4.70;;;;;;;;;;4980549;28;20178;-76
2023/08/02 00:03:44;;;;;;;11.87;5.27;;;;;;;;;;4996651;28;20193;-77
2023/08/02 00:06:10;;;;;;;13.97;5.20;;;;;;;;;;4980217;28;20201;-77
2023/08/02 00:08:36;;;;;;;12.27;4.57;;;;;;;;;;4980453;28;20186;-77
2023/08/02 00:11:03;;;;;;;11.40;4.70;;;;;;;;;;4996481;28;20197;-76
2023/08/02 00:13:29;;;;;;;11.80;5.10;;;;;;;;;;4980838;28;20191;-76
2023/08/02 00:15:55;;;;;;;10.53;4.43;;;;;;;;;;4996112;28;20300;-77
2023/08/02 00:18:21;;;;;;;11.07;4.87;;;;;;;;;;4993404;28;20221;-77
2023/08/02 00:20:48;;;;;;;13.17;5.00;;;;;;;;;;4982102;28;20186;-76
2023/08/02 00:23:14;;;;;;;8.97;4.53;;;;;;;;;;4974117;28;20245;-76
2023/08/02 00:25:40;;;;;;;15.57;5.10;;;;;;;;;;4991534;28;20190;-81
2023/08/02 00:28:06;;;;;;;9.97;5.13;;;;;;;;;;4996532;28;20248;-81
2023/08/02 00:30:32;;;;;;;14.70;5.47;;;;;;;;;;4993374;28;20190;-77
2023/08/02 00:32:59;;;;;;;11.77;5.13;;;;;;;;;;4982833;28;20193;-77
2023/08/02 00:35:25;;;;;;;11.73;5.40;;;;;;;;;;4986968;28;20213;-77
2023/08/02 00:37:51;;;;;;;15.87;5.43;;;;;;;;;;4989644;28;20225;-76
2023/08/02 00:40:17;;;;;;;13.10;5.73;;;;;;;;;;4995746;28;20195;-76
2023/08/02 00:42:43;;;;;;;11.10;5.50;;;;;;;;;;4979898;28;20178;-76
2023/08/02 00:45:09;;;;;;;13.50;5.40;;;;;;;;;;4977425;28;20210;-76
2023/08/02 00:47:35;;;;;;;10.63;5.20;;;;;;;;;;4976722;28;20218;-76
2023/08/02 00:50:02;;;;;;;13.13;5.63;;;;;;;;;;4977179;28;20265;-76
2023/08/02 00:52:28;;;;;;;15.23;5.70;;;;;;;;;;4981628;28;20175;-77
2023/08/02 00:54:54;;;;;;;10.80;5.27;;;;;;;;;;4979357;28;20232;-77
2023/08/02 00:57:21;;;;;;;13.40;5.43;;;;;;;;;;4992783;28;20226;-81
2023/08/02 00:59:47;;;;;;;12.27;5.73;;;;;;;;;;4977424;28;20190;-81
2023/08/02 01:02:13;;;;;;;13.47;5.17;;;;;;;;;;4983818;28;20182;-81
2023/08/02 01:04:39;;;;;;;13.33;6.00;;;;;;;;;;4984793;28;20193;-76
2023/08/02 01:07:08;;;;;;;9.80;5.47;;;;;;;;;;4982137;28;20269;-82
2023/08/02 01:09:52;;;;;;;10.87;5.67;;;;;;;;;;4986804;28;20210;-82
2023/08/02 01:12:20;;;;;;;14.27;5.80;;;;;;;;;;4987386;28;20178;-81
2023/08/02 01:14:53;;;;;;;15.20;5.57;;;;;;;;;;4995320;28;20188;-76
2023/08/02 01:17:19;;;;;;;11.53;5.73;;;;;;;;;;4992085;28;20201;-77
2023/08/02 01:19:47;;;;;;;15.20;6.07;;;;;;;;;;4981639;28;20186;-78
2023/08/02 01:22:13;;;;;;;13.93;6.10;;;;;;;;;;5002275;23;20287;-77
2023/08/02 01:24:39;;;;;;;11.63;5.70;;;;;;;;;;4978376;28;20190;-77
2023/08/02 01:27:08;;;;;;;16.23;6.47;;;;;;;;;;4994317;28;20189;-77
2023/08/02 01:29:34;;;;;;;14.63;6.13;;;;;;;;;;4994139;28;20189;-77
2023/08/02 01:32:00;;;;;;;15.07;6.20;;;;;;;;;;4961912;28;20194;-76
2023/08/02 01:34:27;;;;;;;15.20;6.50;;;;;;;;;;4989858;28;20190;-77
2023/08/02 01:36:53;;;;;;;14.93;6.63;;;;;;;;;;4976015;28;20217;-77
2023/08/02 01:39:19;;;;;;;13.33;6.17;;;;;;;;;;4969081;28;20269;-77
2023/08/02 01:41:45;;;;;;;14.17;6.73;;;;;;;;;;4984614;28;20307;-77
2023/08/02 01:44:11;;;;;;;12.03;6.60;;;;;;;;;;4982804;28;20273;-77
2023/08/02 01:46:37;;;;;;;14.47;5.97;;;;;;;;;;4992043;28;20386;-77
2023/08/02 01:49:03;;;;;;;13.10;6.50;;;;;;;;;;4976720;28;20186;-76
2023/08/02 01:51:29;;;;;;;13.30;6.80;;;;;;;;;;4983655;28;20252;-77
2023/08/02 01:53:55;;;;;;;13.90;7.00;;;;;;;;;;4959193;28;20198;-76
2023/08/02 01:56:21;;;;;;;13.73;6.90;;;;;;;;;;4959335;28;20210;-76
2023/08/02 01:58:47;;;;;;;17.10;7.03;;;;;;;;;;4987172;28;20348;-76
2023/08/02 02:01:13;;;;;;;14.13;6.97;;;;;;;;;;4978408;28;20187;-76
2023/08/02 02:03:40;;;;;;;11.53;7.40;;;;;;;;;;4975119;28;20185;-76
2023/08/02 02:06:06;;;;;;;13.63;6.97;;;;;;;;;;4974903;28;20187;-77
2023/08/02 02:08:32;;;;;;;12.83;7.23;;;;;;;;;;4959329;28;20218;-77
2023/08/02 02:10:58;;;;;;;12.37;7.03;;;;;;;;;;4983855;28;20190;-77
2023/08/02 02:13:24;;;;;;;15.33;6.90;;;;;;;;;;4994494;28;20269;-77
2023/08/02 02:15:50;;;;;;;17.93;6.80;;;;;;;;;;4983866;28;20297;-77
2023/08/02 02:18:16;;;;;;;13.50;6.53;;;;;;;;;;4974598;28;20206;-77
2023/08/02 02:20:42;;;;;;;12.07;6.10;;;;;;;;;;4970408;28;20240;-76
2023/08/02 02:23:09;;;;;;;10.73;6.10;;;;;;;;;;4962584;28;20245;-76
2023/08/02 02:25:35;;;;;;;12.53;6.43;;;;;;;;;;4990958;28;20196;-76
2023/08/02 02:28:01;;;;;;;13.73;5.93;;;;;;;;;;4974257;28;20277;-76
2023/08/02 02:30:27;;;;;;;11.73;6.17;;;;;;;;;;4976353;28;20269;-76
2023/08/02 02:32:53;;;;;;;13.70;6.07;;;;;;;;;;4977199;28;20188;-76
2023/08/02 02:35:19;;;;;;;13.17;6.07;;;;;;;;;;4991705;28;20182;-76
2023/08/02 02:37:45;;;;;;;11.27;5.87;;;;;;;;;;4987454;28;20189;-76
2023/08/02 02:40:11;;;;;;;13.13;6.20;;;;;;;;;;4982233;28;20181;-76
2023/08/02 02:42:43;;;;;;;12.77;6.13;;;;;;;;;;4979118;28;20178;-76
2023/08/02 02:45:10;;;;;;;15.43;6.33;;;;;;;;;;4975513;28;20189;-76
2023/08/02 02:47:36;;;;;;;11.50;6.30;;;;;;;;;;4992475;28;20178;-76
2023/08/02 02:50:02;;;;;;;12.20;6.53;;;;;;;;;;4993733;28;20177;-76
2023/08/02 02:52:28;;;;;;;9.87;6.20;;;;;;;;;;4990661;28;20182;-76
2023/08/02 02:54:54;;;;;;;11.37;6.23;;;;;;;;;;4992798;28;20177;-81
2023/08/02 02:57:20;;;;;;;13.87;6.13;;;;;;;;;;4976486;28;20213;-81
2023/08/02 02:59:46;;;;;;;10.63;6.37;;;;;;;;;;4990857;28;20185;-81
2023/08/02 03:02:12;;;;;;;12.27;6.47;;;;;;;;;;4961477;28;20185;-77
2023/08/02 03:04:38;;;;;;;11.83;6.40;;;;;;;;;;4979913;28;20283;-77
2023/08/02 03:07:04;;;;;;;10.13;6.30;;;;;;;;;;4973391;28;20197;-77
2023/08/02 03:09:30;;;;;;;8.17;5.53;;;;;;;;;;4974543;28;20281;-77
2023/08/02 03:11:56;;;;;;;11.87;5.87;;;;;;;;;;4976678;28;20218;-76
2023/08/02 03:14:22;;;;;;;9.40;5.13;;;;;;;;;;4972024;28;20284;-76
2023/08/02 03:16:48;;;;;;;9.20;5.23;;;;;;;;;;4983753;28;20301;-76
2023/08/02 03:19:14;;;;;;;11.23;5.20;;;;;;;;;;4990682;28;20205;-76
2023/08/02 03:21:40;;;;;;;14.53;6.30;;;;;;;;;;4932662;28;1110065;-76
2023/08/02 03:24:06;;;;;;;12.03;5.70;;;;;;;;;;4970713;28;20226;-76
2023/08/02 03:26:33;;;;;;;10.37;6.03;;;;;;;;;;4992315;28;20186;-76
2023/08/02 03:28:59;;;;;;;8.40;5.67;;;;;;;;;;4981451;28;20193;-81
2023/08/02 03:31:25;;;;;;;14.03;5.93;;;;;;;;;;4981212;28;20185;-80
2023/08/02 03:33:51;;;;;;;9.00;5.73;;;;;;;;;;4997458;28;20220;-81
2023/08/02 03:36:17;;;;;;;10.47;5.93;;;;;;;;;;4980636;28;20214;-80
2023/08/02 03:38:43;;;;;;;9.87;5.83;;;;;;;;;;4977918;28;20191;-81
2023/08/02 03:41:09;;;;;;;10.17;6.27;;;;;;;;;;4970079;28;20185;-81
2023/08/02 03:43:35;;;;;;;15.10;6.93;;;;;;;;;;4996478;28;20298;-82
2023/08/02 03:46:04;;;;;;;10.63;6.90;;;;;;;;;;4977175;28;20280;-76
2023/08/02 03:48:31;;;;;;;13.23;6.53;;;;;;;;;;4977426;28;20197;-76
2023/08/02 03:50:58;;;;;;;9.60;6.23;;;;;;;;;;4977319;28;20267;-76
2023/08/02 03:53:24;;;;;;;11.53;6.03;;;;;;;;;;4978299;28;20186;-76
2023/08/02 03:55:50;;;;;;;11.97;6.20;;;;;;;;;;4976987;28;20211;-76
2023/08/02 03:58:16;;;;;;;11.33;5.87;;;;;;;;;;4977271;28;20190;-76
2023/08/02 04:00:42;;;;;;;11.47;5.43;;;;;;;;;;4977127;28;20187;-76
2023/08/02 04:03:08;;;;;;;13.27;5.93;;;;;;;;;;4977226;28;20182;-76
2023/08/02 04:05:34;;;;;;;12.43;5.47;;;;;;;;;;4976954;28;20181;-76
2023/08/02 04:08:00;;;;;;;10.40;5.50;;;;;;;;;;4976945;28;20182;-78
2023/08/02 04:10:26;;;;;;;12.53;5.80;;;;;;;;;;4977281;28;20190;-76
2023/08/02 04:12:52;;;;;;;11.03;5.60;;;;;;;;;;4976688;28;20286;-76
2023/08/02 04:15:18;;;;;;;8.90;5.40;;;;;;;;;;4986828;28;20205;-76
2023/08/02 04:17:44;;;;;;;11.50;5.00;;;;;;;;;;4996403;28;20202;-77
2023/08/02 04:20:11;;;;;;;9.33;5.30;;;;;;;;;;4996166;28;20185;-78
2023/08/02 04:22:37;;;;;;;14.83;5.40;;;;;;;;;;4979782;28;20284;-78
2023/08/02 04:25:03;;;;;;;9.23;5.20;;;;;;;;;;4995767;28;20252;-77
2023/08/02 04:27:29;;;;;;;11.07;5.27;;;;;;;;;;4996033;28;20182;-76
2023/08/02 04:29:56;;;;;;;12.03;4.80;;;;;;;;;;4995845;28;20182;-76
2023/08/02 04:32:22;;;;;;;12.07;4.97;;;;;;;;;;4996454;28;20188;-76
2023/08/02 04:34:48;;;;;;;11.73;4.93;;;;;;;;;;4979858;28;20186;-77
2023/08/02 04:37:14;;;;;;;12.30;5.57;;;;;;;;;;4976554;28;20441;-77
2023/08/02 04:39:40;;;;;;;8.80;4.67;;;;;;;;;;4960566;28;20179;-77
2023/08/02 04:42:06;;;;;;;9.90;5.10;;;;;;;;;;4960747;28;20183;-82
2023/08/02 04:44:32;;;;;;;12.10;4.57;;;;;;;;;;4976300;28;20182;-80
2023/08/02 04:46:58;;;;;;;10.53;4.97;;;;;;;;;;4977443;28;20190;-82
2023/08/02 04:49:24;;;;;;;10.83;4.43;;;;;;;;;;4986421;28;20201;-81
2023/08/02 04:51:50;;;;;;;10.37;4.97;;;;;;;;;;4995930;28;20178;-76
2023/08/02 04:54:16;;;;;;;7.27;4.07;;;;;;;;;;4979732;28;20186;-76
2023/08/02 04:56:42;;;;;;;8.83;4.90;;;;;;;;;;4979556;28;20229;-76
2023/08/02 04:59:10;;;;;;;9.80;4.63;;;;;;;;;;4979505;28;20189;-76
2023/08/02 05:01:36;;;;;;;10.40;4.50;;;;;;;;;;4987697;28;20186;-76
2023/08/02 05:04:02;;;;;;;9.10;4.10;;;;;;;;;;4996673;28;20233;-76
2023/08/02 05:06:28;;;;;;;7.50;4.43;;;;;;;;;;4979484;28;20192;-76
2023/08/02 05:08:54;;;;;;;8.80;4.17;;;;;;;;;;4976088;28;20186;-77
2023/08/02 05:11:20;;;;;;;10.50;4.20;;;;;;;;;;4994584;28;20202;-77
2023/08/02 05:13:46;;;;;;;7.13;3.83;;;;;;;;;;4996746;28;20178;-77
2023/08/02 05:16:13;;;;;;;8.07;3.70;;;;;;;;;;4979204;28;20221;-79
2023/08/02 05:18:39;;;;;;;9.73;4.00;;;;;;;;;;4984696;28;20190;-81
2023/08/02 05:21:15;;;;;;;7.80;4.43;;;;;;;;;;4975731;28;20179;-81
2023/08/02 05:23:41;;;;;;;9.43;4.00;;;;;;;;;;4990243;28;20237;-81
2023/08/02 05:26:07;;;;;;;10.57;4.03;;;;;;;;;;4979003;28;20190;-76
2023/08/02 05:28:34;;;;;;;9.20;4.07;;;;;;;;;;4961840;28;20270;-76
2023/08/02 05:31:00;;;;;;;7.53;4.10;;;;;;;;;;4976303;28;20179;-76
2023/08/02 05:33:26;;;;;;;6.77;4.20;;;;;;;;;;4977366;28;20236;-76
2023/08/02 05:35:52;;;;;;;7.07;4.30;;;;;;;;;;4978504;28;20217;-76
2023/08/02 05:38:18;;;;;;;8.07;4.53;;;;;;;;;;4994249;28;20174;-76
2023/08/02 05:40:44;;;;;;;5.30;4.07;;;;;;;;;;4995194;28;20212;-82
2023/08/02 05:43:10;;;;;;;7.50;4.20;;;;;;;;;;4994673;28;20265;-82
2023/08/02 05:45:36;;;;;;;9.80;4.90;;;;;;;;;;4995812;28;20264;-82
2023/08/02 05:48:02;;;;;;;12.40;5.33;;;;;;;;;;4994302;28;20178;-82
2023/08/02 05:50:32;;;;;;;8.77;4.90;;;;;;;;;;4993580;28;20213;-82
2023/08/02 05:52:58;;;;;;;6.50;4.27;;;;;;;;;;4994524;28;20178;-82
2023/08/02 05:55:24;;;;;;;6.20;3.97;;;;;;;;;;4992141;28;20208;-82
2023/08/02 05:57:50;;;;;;;8.50;4.10;;;;;;;;;;4986482;28;20191;-77
2023/08/02 06:00:16;;;;;;;6.03;4.10;;;;;;;;;;4979321;28;20255;-77
2023/08/02 06:02:42;;;;;;;5.60;3.77;;;;;;;;;;4974928;28;20242;-77
2023/08/02 06:05:08;;;;;;;6.27;4.17;;;;;;;;;;4979447;28;20186;-77
2023/08/02 06:07:35;;;;;;;5.53;3.87;;;;;;;;;;5002629;28;20240;-77
2023/08/02 06:10:01;;;;;;;7.10;4.10;;;;;;;;;;4995060;28;20186;-76
2023/08/02 06:12:27;;;;;;;5.70;4.23;;;;;;;;;;4984983;28;20198;-77
2023/08/02 06:14:53;;;;;;;7.37;4.03;;;;;;;;;;4975022;28;20186;-77
2023/08/02 06:17:19;;;;;;;10.13;4.27;;;;;;;;;;4979481;28;20217;-77
2023/08/02 06:19:45;;;;;;;7.37;4.43;;;;;;;;;;4975088;28;20217;-78
2023/08/02 06:22:11;;;;;;;8.83;4.50;;;;;;;;;;4994102;28;20197;-78
2023/08/02 06:24:37;;;;;;;8.63;4.90;;;;;;;;;;4987454;28;20216;-78
2023/08/02 06:27:03;;;;;;;9.07;4.70;;;;;;;;;;4976331;28;20186;-78
2023/08/02 06:29:29;;;;;;;9.43;5.00;;;;;;;;;;4975933;28;20234;-77
2023/08/02 06:31:55;;;;;;;7.83;4.90;;;;;;;;;;4974499;28;20190;-80
2023/08/02 06:34:21;;;;;;;12.23;5.73;;;;;;;;;;4985454;28;20191;-78
2023/08/02 06:36:47;;;;;;;8.77;5.23;;;;;;;;;;4963966;28;20208;-76
2023/08/02 06:39:13;;;;;;;10.27;5.80;;;;;;;;;;4993564;28;20212;-80
2023/08/02 06:41:39;;;;;;;9.53;5.80;;;;;;;;;;4981693;28;20187;-77
2023/08/02 06:44:05;;;;;;;9.37;6.23;;;;;;;;;;4989430;28;20193;-76
2023/08/02 06:46:33;;;;;;;9.05;6.60;;;;;;;;;;4968600;28;20499;-75
2023/08/02 06:48:59;;;;;;;11.47;6.00;;;;;;;;;;4993786;28;20178;-76
2023/08/02 06:51:25;;;;;;;9.90;5.57;;;;;;;;;;4993071;28;20189;-77
2023/08/02 06:53:51;;;;;;;11.93;5.93;;;;;;;;;;4993288;28;20182;-76
2023/08/02 06:56:17;;;;;;;9.73;5.57;;;;;;;;;;4993720;28;20234;-77
2023/08/02 06:58:44;;;;;;;9.00;5.77;;;;;;;;;;4989334;28;20190;-76
2023/08/02 07:01:20;;;;;;;10.73;5.70;;;;;;;;;;4981622;28;20224;-76
2023/08/02 07:03:46;;;;;;;11.53;5.73;;;;;;;;;;4977103;28;20178;-77
2023/08/02 07:06:14;;;;;;;8.43;6.03;;;;;;;;;;4976656;28;20205;-80
2023/08/02 07:08:43;;;;;;;12.13;5.70;;;;;;;;;;4976314;28;20183;-80
2023/08/02 07:11:09;;;;;;;10.40;5.87;;;;;;;;;;4977430;28;20226;-80
2023/08/02 07:13:36;;;;;;;12.77;6.20;;;;;;;;;;4975186;28;20178;-81
2023/08/02 07:16:02;;;;;;;10.37;6.00;;;;;;;;;;4974646;28;20238;-81
2023/08/02 07:18:29;;;;;;;14.00;6.40;;;;;;;;;;4980920;28;20176;-81
2023/08/02 07:20:55;;;;;;;10.90;6.07;;;;;;;;;;4993407;28;20177;-76
2023/08/02 07:23:22;;;;;;;11.27;6.40;;;;;;;;;;5003918;23;20245;-76
2023/08/02 07:25:48;;;;;;;9.50;6.03;;;;;;;;;;4988493;28;20241;-76
2023/08/02 07:28:14;;;;;;;10.67;6.53;;;;;;;;;;4963936;28;20281;-76
2023/08/02 07:30:40;;;;;;;9.23;6.30;;;;;;;;;;4977778;28;20192;-77
2023/08/02 07:33:06;;;;;;;11.20;6.07;;;;;;;;;;4987140;28;20185;-76
2023/08/02 07:35:35;;;;;;;9.37;5.80;;;;;;;;;;4973739;28;20242;-76
2023/08/02 07:38:01;;;;;;;10.17;6.33;;;;;;;;;;4982585;28;20203;-79
2023/08/02 07:40:27;;;;;;;9.20;6.10;;;;;;;;;;4985356;28;20221;-79
2023/08/02 07:42:53;;;;;;;12.23;6.27;;;;;;;;;;4964723;28;20186;-79
2023/08/02 07:45:19;;;;;;;9.40;6.07;;;;;;;;;;4992879;28;20228;-78
2023/08/02 07:47:45;;;;;;;9.37;6.50;;;;;;;;;;4969257;28;20282;-78
2023/08/02 07:50:11;;;;;;;11.03;6.60;;;;;;;;;;4973412;28;20218;-80
2023/08/02 07:52:37;;;;;;;8.50;6.73;;;;;;;;;;4987404;28;20197;-77
2023/08/02 07:55:03;;;;;;;7.83;6.17;;;;;;;;;;4993061;28;20190;-77
2023/08/02 07:57:33;;;;;;;8.27;6.20;;;;;;;;;;4989735;28;20234;-77
2023/08/02 07:59:59;;;;;;;7.73;5.80;;;;;;;;;;4975501;28;20183;-77
2023/08/02 08:02:26;;;;;;;7.97;5.97;;;;;;;;;;4977680;28;20210;-77
2023/08/02 08:04:52;;;;;;;7.40;5.77;;;;;;;;;;4978204;28;20178;-76
2023/08/02 08:07:18;;;;;;;9.27;6.17;;;;;;;;;;4977251;28;20187;-76
2023/08/02 08:09:44;;;;;;;6.47;5.20;;;;;;;;;;4977558;28;20210;-76
2023/08/02 08:12:10;;;;;;;5.83;5.20;;;;;;;;;;4977151;28;20273;-77
2023/08/02 08:14:37;;;;;;;6.60;5.20;;;;;;;;;;4978242;28;20191;-76
2023/08/02 08:17:03;;;;;;;7.60;4.97;;;;;;;;;;4993046;28;20213;-79
2023/08/02 08:19:30;;;;;;;6.93;5.13;;;;;;;;;;4979740;28;20209;-78
2023/08/02 08:21:56;;;;;;;7.43;4.90;;;;;;;;;;4995970;28;20222;-79
2023/08/02 08:24:22;;;;;;;5.30;4.60;;;;;;;;;;4996366;28;20178;-78
2023/08/02 08:26:50;;;;;;;6.80;4.60;;;;;;;;;;4996010;28;20241;-78
2023/08/02 08:29:16;;;;;;;6.53;4.70;;;;;;;;;;4979136;28;20194;-76
2023/08/02 08:31:42;;;;;;;7.40;4.90;;;;;;;;;;4973537;28;20195;-77
2023/08/02 08:34:08;;;;;;;8.27;5.20;;;;;;;;;;4970786;28;20200;-77
2023/08/02 08:36:34;;;;;;;6.83;4.77;;;;;;;;;;4995832;28;20296;-77
2023/08/02 08:39:00;;;;;;;5.70;4.47;;;;;;;;;;4965895;28;20190;-76
2023/08/02 08:41:26;;;;;;;5.10;4.57;;;;;;;;;;4961454;28;20182;-76
2023/08/02 08:43:52;;;;;;;5.47;4.80;;;;;;;;;;4989835;28;20250;-76
2023/08/02 08:46:18;;;;;;;5.37;4.50;;;;;;;;;;4985827;28;20265;-76
2023/08/02 08:48:44;;;;;;;4.77;4.10;;;;;;;;;;4987632;28;20220;-76
2023/08/02 08:51:12;;;;;;;4.77;3.80;;;;;;;;;;4995717;28;20190;-76
2023/08/02 08:53:42;;;;;;;4.40;3.77;;;;;;;;;;4994172;28;20198;-76
2023/08/02 08:56:08;;;;;;;4.93;3.87;;;;;;;;;;4993516;28;20212;-76
2023/08/02 08:58:34;;;;;;;4.10;3.70;;;;;;;;;;4990785;28;20193;-76
2023/08/02 09:01:03;;;;;;;3.80;3.40;;;;;;;;;;4960487;28;20279;-77
2023/08/02 09:03:29;;;;;;;3.87;3.10;;;;;;;;;;4975796;28;20179;-78
2023/08/02 09:06:02;;;;;;;4.50;3.40;;;;;;;;;;4975979;28;20326;-77
2023/08/02 09:08:28;;;;;;;4.23;3.40;;;;;;;;;;4977438;28;20183;-80
2023/08/02 09:10:54;;;;;;;5.03;3.07;;;;;;;;;;4977939;28;20191;-81
2023/08/02 09:13:24;;;;;;;3.63;2.70;;;;;;;;;;4984183;28;20189;-80
2023/08/02 09:16:04;;;;;;;3.30;2.60;;;;;;;;;;4991912;28;20207;-81
2023/08/02 09:18:41;;;;;;;2.30;2.10;;;;;;;;;;4986988;28;20182;-82
2023/08/02 09:21:07;;;;;;;2.60;2.40;;;;;;;;;;4996198;28;20182;-81
2023/08/02 09:23:33;;;;;;;2.63;2.43;;;;;;;;;;4987204;28;20234;-81
2023/08/02 09:26:12;;;;;;;3.53;2.67;;;;;;;;;;4991662;28;20213;-81
2023/08/02 09:28:38;;;;;;;3.47;3.17;;;;;;;;;;4977152;28;20189;-81
2023/08/02 09:31:14;;;;;;;3.93;2.70;;;;;;;;;;4975615;28;20209;-82
2023/08/02 09:33:58;;;;;;;4.20;3.00;;;;;;;;;;4978281;28;20174;-81
2023/08/02 09:36:27;;;;;;;3.87;2.63;;;;;;;;;;4983864;28;20256;-81
2023/08/02 09:38:56;;;;;;;3.10;2.50;;;;;;;;;;4999504;28;20244;-81
2023/08/02 09:41:23;;;;;;;4.57;2.80;;;;;;;;;;4978702;28;20186;-81
2023/08/02 09:43:51;;;;;;;3.23;2.63;;;;;;;;;;4987151;28;20198;-81
2023/08/02 09:46:24;;;;;;;3.67;2.77;;;;;;;;;;4993963;28;20186;-81
2023/08/02 09:48:50;;;;;;;2.97;2.67;;;;;;;;;;4994463;28;20180;-81
2023/08/02 09:51:16;;;;;;;3.13;2.70;;;;;;;;;;4963152;28;20206;-80
2023/08/02 09:53:53;;;;;;;3.37;2.90;;;;;;;;;;4959215;28;20193;-80
2023/08/02 09:56:20;;;;;;;2.97;2.77;;;;;;;;;;4975103;28;20214;-77
2023/08/02 09:58:46;;;;;;;4.37;3.10;;;;;;;;;;4976702;28;20213;-77
2023/08/02 10:01:12;;;;;;;3.67;3.20;;;;;;;;;;4975074;28;20316;-77
2023/08/02 10:03:38;;;;;;;4.83;3.53;;;;;;;;;;4965506;28;20182;-77
2023/08/02 10:06:06;;;;;;;5.17;3.60;;;;;;;;;;4989651;28;20198;-77
2023/08/02 10:08:33;;;;;;;5.23;3.40;;;;;;;;;;4990935;28;20174;-79
2023/08/02 10:11:00;;;;;;;3.83;3.23;;;;;;;;;;4983528;28;20186;-80
2023/08/02 10:13:29;;;;;;;3.40;3.10;;;;;;;;;;4989545;28;20183;-79
2023/08/02 10:15:56;;;;;;;3.53;3.23;;;;;;;;;;4974559;28;20210;-80
2023/08/02 10:18:22;;;;;;;3.83;3.53;;;;;;;;;;4975779;28;20178;-80
2023/08/02 10:20:48;;;;;;;3.60;3.30;;;;;;;;;;4976644;28;20226;-79
2023/08/02 10:23:15;;;;;;;4.13;3.73;;;;;;;;;;4974909;28;20252;-79
2023/08/02 10:25:41;;;;;;;3.87;3.50;;;;;;;;;;4983960;28;20284;-79
2023/08/02 10:28:08;;;;;;;3.90;3.60;;;;;;;;;;4974407;28;20266;-79
2023/08/02 10:30:35;;;;;;;4.50;3.93;;;;;;;;;;4993670;28;20186;-79
2023/08/02 10:33:21;;;;;;;4.13;3.83;;;;;;;;;;4977909;28;20189;-78
2023/08/02 10:36:06;;;;;;;4.43;4.13;;;;;;;;;;4981594;28;20182;-78
2023/08/02 10:38:41;;;;;;;3.80;3.60;;;;;;;;;;4975409;28;20182;-79
2023/08/02 10:41:12;;;;;;;4.10;3.60;;;;;;;;;;4974768;28;20209;-78
2023/08/02 10:44:04;;;;;;;4.30;4.00;;;;;;;;;;4974393;28;20210;-79
2023/08/02 10:46:32;;;;;;;4.03;3.73;;;;;;;;;;4973003;28;20209;-79
2023/08/02 10:49:18;;;;;;;3.83;3.53;;;;;;;;;;5007933;28;20193;-79
2023/08/02 10:51:45;;;;;;;3.67;3.37;;;;;;;;;;4986780;28;20205;-79
2023/08/02 10:54:22;;;;;;;3.70;3.40;;;;;;;;;;4977707;28;20189;-77
2023/08/02 10:56:54;;;;;;;3.70;3.40;;;;;;;;;;4993611;28;20209;-77
2023/08/02 10:59:23;;;;;;;3.60;3.30;;;;;;;;;;4993814;28;20250;-81
2023/08/02 11:02:00;;;;;;;3.93;3.60;;;;;;;;;;4992584;28;20254;-81
2023/08/02 11:04:26;;;;;;;3.40;3.10;;;;;;;;;;4993658;28;20173;-81
2023/08/02 11:06:53;;;;;;;4.60;3.00;;;;;;;;;;4984963;28;20179;-81
2023/08/02 11:09:19;;;;;;;3.30;3.00;;;;;;;;;;4974523;28;20203;-82
2023/08/02 11:11:45;;;;;;;3.00;2.80;;;;;;;;;;4988884;28;20225;-82
2023/08/02 11:14:11;;;;;;;3.90;2.50;;;;;;;;;;4972165;28;20221;-82
2023/08/02 11:16:40;;;;;;;2.40;2.20;;;;;;;;;;4982627;28;20206;-81
2023/08/02 11:19:10;;;;;;;2.50;2.30;;;;;;;;;;4958006;28;20208;-81
2023/08/02 11:21:36;;;;;;;2.50;2.30;;;;;;;;;;4974965;28;20175;-82
2023/08/02 11:24:03;;;;;;;2.40;2.20;;;;;;;;;;4978214;28;20221;-82
2023/08/02 11:26:29;;;;;;;2.20;2.00;;;;;;;;;;4978331;28;20187;-82
2023/08/02 11:28:55;;;;;;;2.10;2.00;;;;;;;;;;4975064;28;20175;-81
2023/08/02 11:31:25;;;;;;;2.00;1.90;;;;;;;;;;4973714;28;20187;-80
2023/08/02 11:33:52;;;;;;;2.67;2.13;;;;;;;;;;4974979;28;20199;-79
2023/08/02 11:36:18;;;;;;;2.53;2.10;;;;;;;;;;4979073;28;20225;-79
2023/08/02 11:38:44;;;;;;;3.70;2.10;;;;;;;;;;4977690;28;20187;-79
2023/08/02 11:41:21;;;;;;;2.53;2.33;;;;;;;;;;4961155;28;20179;-82
2023/08/02 11:43:47;;;;;;;2.70;2.50;;;;;;;;;;4978495;28;20175;-82
2023/08/02 11:46:13;;;;;;;2.83;2.63;;;;;;;;;;4977846;28;20254;-82
2023/08/02 11:48:40;;;;;;;3.10;2.90;;;;;;;;;;4977479;28;20186;-82
2023/08/02 11:51:07;;;;;;;3.70;3.40;;;;;;;;;;4977527;28;20186;-82
2023/08/02 11:53:33;;;;;;;4.37;3.97;;;;;;;;;;4977260;28;20225;-82
2023/08/02 11:55:59;;;;;;;4.10;3.70;;;;;;;;;;4977221;28;20206;-81
2023/08/02 11:58:25;;;;;;;4.40;4.00;;;;;;;;;;4961322;28;20277;-82
2023/08/02 12:00:51;;;;;;;4.23;3.83;;;;;;;;;;4977175;28;20179;-81
2023/08/02 12:03:17;;;;;;;5.07;4.30;;;;;;;;;;4977014;28;20285;-81
2023/08/02 12:05:44;;;;;;;5.37;4.87;;;;;;;;;;4976655;28;20192;-78
2023/08/02 12:08:14;;;;;;;4.83;4.20;;;;;;;;;;4983293;28;20230;-78
2023/08/02 12:10:41;;;;;;;4.80;4.40;;;;;;;;;;4987377;28;20256;-78
2023/08/02 12:13:08;;;;;;;4.33;3.93;;;;;;;;;;4995445;28;20190;-77
2023/08/02 12:15:35;;;;;;;5.57;3.90;;;;;;;;;;4988663;28;20186;-78
2023/08/02 12:18:02;;;;;;;3.50;3.20;;;;;;;;;;4990454;28;20209;-79
2023/08/02 12:20:38;;;;;;;5.53;3.70;;;;;;;;;;4995946;28;20189;-79
2023/08/02 12:23:04;;;;;;;2.80;2.60;;;;;;;;;;4996013;28;20226;-77
2023/08/02 12:25:47;;;;;;;2.90;2.70;;;;;;;;;;4995800;28;20178;-77
2023/08/02 12:28:13;;;;;;;2.90;2.67;;;;;;;;;;4977686;28;20418;-77
2023/08/02 12:30:39;;;;;;;4.60;2.40;;;;;;;;;;4976600;28;20206;-78
2023/08/02 12:33:05;;;;;;;2.80;2.50;;;;;;;;;;4959842;28;20425;-77
2023/08/02 12:35:31;;;;;;;3.27;2.40;;;;;;;;;;4976519;28;20185;-77
2023/08/02 12:37:57;;;;;;;2.33;2.10;;;;;;;;;;4970315;28;20277;-77
2023/08/02 12:40:23;;;;;;;2.10;1.70;;;;;;;;;;4986162;28;20179;-77
2023/08/02 12:42:49;;;;;;;2.87;1.70;;;;;;;;;;4976963;28;20185;-77
2023/08/02 12:45:15;;;;;;;2.23;1.80;;;;;;;;;;4960356;28;20186;-77
2023/08/02 12:47:41;;;;;;;3.07;1.93;;;;;;;;;;4960283;28;20178;-78
2023/08/02 12:50:07;;;;;;;2.63;1.97;;;;;;;;;;4976114;28;20175;-81
2023/08/02 12:52:33;;;;;;;3.77;1.90;;;;;;;;;;4988127;28;20183;-81
2023/08/02 12:54:59;;;;;;;3.93;1.80;;;;;;;;;;4996795;28;20250;-82
2023/08/02 12:57:25;;;;;;;4.03;2.00;;;;;;;;;;4979898;28;20304;-82
2023/08/02 12:59:51;;;;;;;4.03;1.90;;;;;;;;;;4979687;28;20181;-82
2023/08/02 13:02:17;;;;;;;3.87;1.80;;;;;;;;;;4979371;28;20190;-82
2023/08/02 13:04:44;;;;;;;4.97;2.30;;;;;;;;;;4995557;28;20182;-82
2023/08/02 13:07:10;;;;;;;5.10;2.17;;;;;;;;;;4996670;28;20265;-80
2023/08/02 13:09:38;;;;;;;6.20;2.10;;;;;;;;;;4996323;28;20276;-80
2023/08/02 13:12:04;;;;;;;5.97;2.40;;;;;;;;;;4996383;28;20185;-79
2023/08/02 13:14:30;;;;;;;5.67;2.30;;;;;;;;;;4995607;28;20186;-80
2023/08/02 13:16:56;;;;;;;5.53;2.43;;;;;;;;;;4979450;28;20225;-81
2023/08/02 13:19:22;;;;;;;6.05;2.33;;;;;;;;;;4979397;28;20178;-80
2023/08/02 13:21:48;;;;;;;6.77;2.20;;;;;;;;;;5002985;23;20305;-76
2023/08/02 13:24:14;;;;;;;7.05;2.30;;;;;;;;;;4994777;28;20237;-77
2023/08/02 13:26:41;;;;;;;5.97;2.47;;;;;;;;;;4995069;28;20250;-76
2023/08/02 13:29:07;;;;;;;5.63;2.37;;;;;;;;;;4995220;28;20312;-77
2023/08/02 13:31:33;;;;;;;4.83;2.27;;;;;;;;;;4994858;28;20194;-77
2023/08/02 13:33:59;;;;;;;6.25;2.13;;;;;;;;;;4995984;28;20174;-77
2023/08/02 13:36:25;;;;;;;4.97;2.22;;;;;;;;;;5010849;28;20210;-77
2023/08/02 13:38:51;;;;;;;5.32;2.38;;;;;;;;;;4994485;28;20185;-77
2023/08/02 13:41:17;;;;;;;7.30;2.78;;;;;;;;;;4994542;28;20329;-77
2023/08/02 13:43:43;;;;;;;5.85;2.05;;;;;;;;;;4995756;28;20178;-77
2023/08/02 13:46:09;;;;;;;5.28;2.20;;;;;;;;;;4995691;28;20268;-78
2023/08/02 13:48:35;;;;;;;6.05;2.15;;;;;;;;;;4994801;28;20240;-78
2023/08/02 13:51:01;;;;;;;5.53;2.33;;;;;;;;;;5010829;28;20269;-78
2023/08/02 13:53:27;;;;;;;4.83;1.90;;;;;;;;;;4994368;28;20181;-78
2023/08/02 13:55:53;;;;;;;5.88;1.92;;;;;;;;;;4994548;28;20182;-78
2023/08/02 13:58:19;;;;;;;7.00;2.17;;;;;;;;;;4994125;28;20197;-78
2023/08/02 14:00:45;;;;;;;7.35;2.20;;;;;;;;;;4994323;28;20201;-77
2023/08/02 14:03:11;;;;;;;4.90;2.00;;;;;;;;;;4994014;28;20272;-77
2023/08/02 14:05:37;;;;;;;5.75;2.08;;;;;;;;;;4994323;28;20254;-76
2023/08/02 14:08:03;;;;;;;4.85;1.80;;;;;;;;;;4999483;28;20269;-77
2023/08/02 14:10:30;;;;;;;4.78;1.77;;;;;;;;;;4992447;28;20193;-81
2023/08/02 14:12:58;;;;;;;7.50;1.85;;;;;;;;;;5007203;28;20210;-80
2023/08/02 14:15:24;;;;;;;5.82;1.90;;;;;;;;;;5010122;28;20182;-81
2023/08/02 14:17:50;;;;;;;6.22;1.90;;;;;;;;;;4988962;28;20214;-78
2023/08/02 14:20:16;;;;;;;5.18;1.77;;;;;;;;;;4986159;28;20218;-78
2023/08/02 14:22:42;;;;;;;5.03;1.77;;;;;;;;;;4977118;28;20237;-78
2023/08/02 14:25:10;;;;;;;2.87;1.20;;;;;;;;;;4992892;28;20182;-78
2023/08/02 14:27:36;;;;;;;5.30;1.35;;;;;;;;;;4994875;28;20174;-77
2023/08/02 14:30:03;;;;;;;4.20;1.42;;;;;;;;;;4977704;28;20185;-77
2023/08/02 14:32:29;;;;;;;4.80;1.45;;;;;;;;;;4993121;28;20281;-77
2023/08/02 14:34:55;;;;;;;4.22;1.52;;;;;;;;;;4994068;28;20253;-77
2023/08/02 14:37:21;;;;;;;3.60;1.55;;;;;;;;;;4977881;28;20236;-77